sensor_id;sensor_type;location;lat;lon;timestamp;P1;durP1;ratioP1;P2;durP2;ratioP2
8622;SDS011;4349;47.552;8.904;2023-12-14T00:00:40;1.10;;;1.10;;
8622;SDS011;4349;47.552;8.904;2023-12-14T00:03:08;1.10;;;1.10;;
8622;SDS011;4349;47.552;8.904;2023-12-14T00:05:35;1.20;;;1.20;;
8622;SDS011;4349;47.552;8.904;2023-12-14T00:08:03;1.30;;;1.30;;
8622;SDS011;4349;47.552;8.904;2023-12-14T00:10:31;1.10;;;1.10;;
8622;SDS011;4349;47.552;8.904;2023-12-14T00:12:59;1.20;;;1.20;;
8622;SDS011;4349;47.552;8.904;2023-12-14T00:15:27;1.10;;;1.10;;
8622;SDS011;4349;47.552;8.904;2023-12-14T00:17:55;1.17;;;1.17;;
8622;SDS011;4349;47.552;8.904;2023-12-14T00:20:22;1.10;;;1.00;;
8622;SDS011;4349;47.552;8.904;2023-12-14T00:22:50;1.00;;;1.00;;
8622;SDS011;4349;47.552;8.904;2023-12-14T00:25:18;0.90;;;0.90;;
8622;SDS011;4349;47.552;8.904;2023-12-14T00:27:47;1.10;;;1.00;;
8622;SDS011;4349;47.552;8.904;2023-12-14T00:30:14;0.80;;;0.80;;
8622;SDS011;4349;47.552;8.904;2023-12-14T00:32:42;0.90;;;0.90;;
8622;SDS011;4349;47.552;8.904;2023-12-14T00:35:10;1.00;;;1.00;;
8622;SDS011;4349;47.552;8.904;2023-12-14T00:37:37;1.10;;;1.10;;
8622;SDS011;4349;47.552;8.904;2023-12-14T00:40:06;1.00;;;0.90;;
8622;SDS011;4349;47.552;8.904;2023-12-14T00:42:34;1.00;;;1.00;;
8622;SDS011;4349;47.552;8.904;2023-12-14T00:45:03;1.00;;;1.00;;
8622;SDS011;4349;47.552;8.904;2023-12-14T00:47:31;0.90;;;0.90;;
8622;SDS011;4349;47.552;8.904;2023-12-14T00:49:58;0.97;;;0.97;;
8622;SDS011;4349;47.552;8.904;2023-12-14T00:52:27;0.87;;;0.87;;
8622;SDS011;4349;47.552;8.904;2023-12-14T00:54:55;0.93;;;0.93;;
8622;SDS011;4349;47.552;8.904;2023-12-14T00:57:23;0.90;;;0.90;;
8622;SDS011;4349;47.552;8.904;2023-12-14T00:59:50;0.80;;;0.80;;
8622;SDS011;4349;47.552;8.904;2023-12-14T01:02:19;0.80;;;0.80;;
8622;SDS011;4349;47.552;8.904;2023-12-14T01:04:48;0.80;;;0.80;;
8622;SDS011;4349;47.552;8.904;2023-12-14T01:07:15;1.90;;;0.70;;
8622;SDS011;4349;47.552;8.904;2023-12-14T01:09:43;1.00;;;1.00;;
8622;SDS011;4349;47.552;8.904;2023-12-14T01:12:11;0.80;;;0.80;;
8622;SDS011;4349;47.552;8.904;2023-12-14T01:14:38;0.90;;;0.90;;
8622;SDS011;4349;47.552;8.904;2023-12-14T01:17:06;1.13;;;0.90;;
8622;SDS011;4349;47.552;8.904;2023-12-14T01:19:35;0.80;;;0.80;;
8622;SDS011;4349;47.552;8.904;2023-12-14T01:22:03;0.90;;;0.90;;
8622;SDS011;4349;47.552;8.904;2023-12-14T01:24:30;0.80;;;0.80;;
8622;SDS011;4349;47.552;8.904;2023-12-14T01:26:58;1.03;;;1.03;;
8622;SDS011;4349;47.552;8.904;2023-12-14T01:29:26;1.20;;;0.93;;
8622;SDS011;4349;47.552;8.904;2023-12-14T01:31:53;1.33;;;0.90;;
8622;SDS011;4349;47.552;8.904;2023-12-14T01:34:21;1.67;;;0.90;;
8622;SDS011;4349;47.552;8.904;2023-12-14T01:36:50;1.00;;;1.00;;
8622;SDS011;4349;47.552;8.904;2023-12-14T01:39:18;1.20;;;1.20;;
8622;SDS011;4349;47.552;8.904;2023-12-14T01:41:45;1.97;;;1.10;;
8622;SDS011;4349;47.552;8.904;2023-12-14T01:44:13;1.20;;;1.10;;
8622;SDS011;4349;47.552;8.904;2023-12-14T01:46:40;1.20;;;1.20;;
8622;SDS011;4349;47.552;8.904;2023-12-14T01:49:08;1.40;;;1.40;;
8622;SDS011;4349;47.552;8.904;2023-12-14T01:51:36;1.50;;;1.40;;
8622;SDS011;4349;47.552;8.904;2023-12-14T01:54:05;1.53;;;1.33;;
8622;SDS011;4349;47.552;8.904;2023-12-14T01:56:32;1.53;;;1.50;;
8622;SDS011;4349;47.552;8.904;2023-12-14T01:59:00;1.30;;;1.30;;
8622;SDS011;4349;47.552;8.904;2023-12-14T02:01:28;1.60;;;1.50;;
8622;SDS011;4349;47.552;8.904;2023-12-14T02:03:58;1.30;;;1.30;;
8622;SDS011;4349;47.552;8.904;2023-12-14T02:06:26;1.50;;;1.40;;
8622;SDS011;4349;47.552;8.904;2023-12-14T02:08:53;1.40;;;1.40;;
8622;SDS011;4349;47.552;8.904;2023-12-14T02:11:22;1.37;;;1.37;;
8622;SDS011;4349;47.552;8.904;2023-12-14T02:13:50;1.53;;;1.43;;
8622;SDS011;4349;47.552;8.904;2023-12-14T02:16:18;2.27;;;1.33;;
8622;SDS011;4349;47.552;8.904;2023-12-14T02:18:46;1.83;;;1.73;;
8622;SDS011;4349;47.552;8.904;2023-12-14T02:21:13;1.57;;;1.50;;
8622;SDS011;4349;47.552;8.904;2023-12-14T02:23:43;1.50;;;1.50;;
8622;SDS011;4349;47.552;8.904;2023-12-14T02:26:11;1.60;;;1.60;;
8622;SDS011;4349;47.552;8.904;2023-12-14T02:28:39;1.50;;;1.50;;
8622;SDS011;4349;47.552;8.904;2023-12-14T02:31:07;1.30;;;1.30;;
8622;SDS011;4349;47.552;8.904;2023-12-14T02:33:34;1.70;;;1.60;;
8622;SDS011;4349;47.552;8.904;2023-12-14T02:36:02;1.63;;;1.63;;
8622;SDS011;4349;47.552;8.904;2023-12-14T02:38:30;1.70;;;1.60;;
8622;SDS011;4349;47.552;8.904;2023-12-14T02:40:59;1.43;;;1.43;;
8622;SDS011;4349;47.552;8.904;2023-12-14T02:43:27;1.90;;;1.80;;
8622;SDS011;4349;47.552;8.904;2023-12-14T02:45:55;1.50;;;1.50;;
8622;SDS011;4349;47.552;8.904;2023-12-14T02:48:28;1.53;;;1.53;;
8622;SDS011;4349;47.552;8.904;2023-12-14T02:50:56;1.67;;;1.67;;
8622;SDS011;4349;47.552;8.904;2023-12-14T02:53:26;1.67;;;1.60;;
8622;SDS011;4349;47.552;8.904;2023-12-14T02:55:54;1.67;;;1.57;;
8622;SDS011;4349;47.552;8.904;2023-12-14T02:58:23;1.70;;;1.60;;
8622;SDS011;4349;47.552;8.904;2023-12-14T03:00:50;1.40;;;1.40;;
8622;SDS011;4349;47.552;8.904;2023-12-14T03:03:18;1.20;;;1.20;;
8622;SDS011;4349;47.552;8.904;2023-12-14T03:05:45;1.50;;;1.50;;
8622;SDS011;4349;47.552;8.904;2023-12-14T03:08:14;1.40;;;1.40;;
8622;SDS011;4349;47.552;8.904;2023-12-14T03:10:42;1.20;;;1.20;;
8622;SDS011;4349;47.552;8.904;2023-12-14T03:13:10;1.33;;;1.33;;
8622;SDS011;4349;47.552;8.904;2023-12-14T03:15:39;1.30;;;1.30;;
8622;SDS011;4349;47.552;8.904;2023-12-14T03:18:09;1.20;;;1.20;;
8622;SDS011;4349;47.552;8.904;2023-12-14T03:20:39;1.30;;;1.30;;
8622;SDS011;4349;47.552;8.904;2023-12-14T03:23:07;1.40;;;1.40;;
8622;SDS011;4349;47.552;8.904;2023-12-14T03:25:34;1.30;;;1.30;;
8622;SDS011;4349;47.552;8.904;2023-12-14T03:28:02;2.07;;;1.47;;
8622;SDS011;4349;47.552;8.904;2023-12-14T03:30:29;1.53;;;1.53;;
8622;SDS011;4349;47.552;8.904;2023-12-14T03:32:58;1.30;;;1.30;;
8622;SDS011;4349;47.552;8.904;2023-12-14T03:35:27;1.30;;;1.30;;
8622;SDS011;4349;47.552;8.904;2023-12-14T03:37:55;1.50;;;1.50;;
8622;SDS011;4349;47.552;8.904;2023-12-14T03:40:22;1.40;;;1.40;;
8622;SDS011;4349;47.552;8.904;2023-12-14T03:42:50;1.30;;;1.30;;
8622;SDS011;4349;47.552;8.904;2023-12-14T03:45:17;1.50;;;1.50;;
8622;SDS011;4349;47.552;8.904;2023-12-14T03:47:45;1.50;;;1.40;;
8622;SDS011;4349;47.552;8.904;2023-12-14T03:50:14;1.70;;;1.30;;
8622;SDS011;4349;47.552;8.904;2023-12-14T03:52:42;1.43;;;1.43;;
8622;SDS011;4349;47.552;8.904;2023-12-14T03:55:10;1.40;;;1.40;;
8622;SDS011;4349;47.552;8.904;2023-12-14T03:57:37;1.90;;;1.80;;
8622;SDS011;4349;47.552;8.904;2023-12-14T04:00:07;1.40;;;1.40;;
8622;SDS011;4349;47.552;8.904;2023-12-14T04:02:35;1.50;;;1.50;;
8622;SDS011;4349;47.552;8.904;2023-12-14T04:05:02;1.67;;;1.60;;
8622;SDS011;4349;47.552;8.904;2023-12-14T04:07:31;1.90;;;1.90;;
8622;SDS011;4349;47.552;8.904;2023-12-14T04:09:59;1.80;;;1.80;;
8622;SDS011;4349;47.552;8.904;2023-12-14T04:12:27;1.83;;;1.80;;
8622;SDS011;4349;47.552;8.904;2023-12-14T04:14:54;1.70;;;1.70;;
8622;SDS011;4349;47.552;8.904;2023-12-14T04:17:22;1.70;;;1.70;;
8622;SDS011;4349;47.552;8.904;2023-12-14T04:19:50;2.47;;;1.90;;
8622;SDS011;4349;47.552;8.904;2023-12-14T04:22:18;2.03;;;2.03;;
8622;SDS011;4349;47.552;8.904;2023-12-14T04:24:47;1.70;;;1.70;;
8622;SDS011;4349;47.552;8.904;2023-12-14T04:27:15;1.73;;;1.73;;
8622;SDS011;4349;47.552;8.904;2023-12-14T04:29:42;2.10;;;1.90;;
8622;SDS011;4349;47.552;8.904;2023-12-14T04:32:10;1.80;;;1.70;;
8622;SDS011;4349;47.552;8.904;2023-12-14T04:34:38;1.97;;;1.90;;
8622;SDS011;4349;47.552;8.904;2023-12-14T04:37:05;1.87;;;1.87;;
8622;SDS011;4349;47.552;8.904;2023-12-14T04:39:34;1.87;;;1.87;;
8622;SDS011;4349;47.552;8.904;2023-12-14T04:42:03;1.80;;;1.80;;
8622;SDS011;4349;47.552;8.904;2023-12-14T04:44:30;2.20;;;2.10;;
8622;SDS011;4349;47.552;8.904;2023-12-14T04:46:58;1.73;;;1.73;;
8622;SDS011;4349;47.552;8.904;2023-12-14T04:49:26;1.90;;;1.90;;
8622;SDS011;4349;47.552;8.904;2023-12-14T04:51:53;2.00;;;2.00;;
8622;SDS011;4349;47.552;8.904;2023-12-14T04:54:21;2.00;;;2.00;;
8622;SDS011;4349;47.552;8.904;2023-12-14T04:56:49;1.83;;;1.83;;
8622;SDS011;4349;47.552;8.904;2023-12-14T04:59:17;2.00;;;2.00;;
8622;SDS011;4349;47.552;8.904;2023-12-14T05:01:45;2.10;;;2.00;;
8622;SDS011;4349;47.552;8.904;2023-12-14T05:04:13;2.10;;;2.00;;
8622;SDS011;4349;47.552;8.904;2023-12-14T05:06:40;2.20;;;2.20;;
8622;SDS011;4349;47.552;8.904;2023-12-14T05:09:08;1.90;;;1.90;;
8622;SDS011;4349;47.552;8.904;2023-12-14T05:11:39;2.03;;;1.90;;
8622;SDS011;4349;47.552;8.904;2023-12-14T05:14:06;2.17;;;2.17;;
8622;SDS011;4349;47.552;8.904;2023-12-14T05:16:35;2.87;;;2.77;;
8622;SDS011;4349;47.552;8.904;2023-12-14T05:19:03;2.07;;;2.07;;
8622;SDS011;4349;47.552;8.904;2023-12-14T05:21:31;2.17;;;2.07;;
8622;SDS011;4349;47.552;8.904;2023-12-14T05:23:58;2.00;;;1.90;;
8622;SDS011;4349;47.552;8.904;2023-12-14T05:26:26;2.80;;;1.80;;
8622;SDS011;4349;47.552;8.904;2023-12-14T05:28:54;2.00;;;1.90;;
8622;SDS011;4349;47.552;8.904;2023-12-14T05:31:22;2.20;;;2.10;;
8622;SDS011;4349;47.552;8.904;2023-12-14T05:33:51;1.87;;;1.87;;
8622;SDS011;4349;47.552;8.904;2023-12-14T05:36:18;1.83;;;1.83;;
8622;SDS011;4349;47.552;8.904;2023-12-14T05:38:46;2.13;;;2.03;;
8622;SDS011;4349;47.552;8.904;2023-12-14T05:41:13;2.23;;;2.23;;
8622;SDS011;4349;47.552;8.904;2023-12-14T05:43:42;1.83;;;1.83;;
8622;SDS011;4349;47.552;8.904;2023-12-14T05:46:09;2.43;;;2.30;;
8622;SDS011;4349;47.552;8.904;2023-12-14T05:48:46;1.80;;;1.80;;
8622;SDS011;4349;47.552;8.904;2023-12-14T05:51:26;2.50;;;2.20;;
8622;SDS011;4349;47.552;8.904;2023-12-14T05:53:54;2.17;;;2.07;;
8622;SDS011;4349;47.552;8.904;2023-12-14T05:56:21;2.37;;;2.27;;
8622;SDS011;4349;47.552;8.904;2023-12-14T05:58:49;2.40;;;2.20;;
8622;SDS011;4349;47.552;8.904;2023-12-14T06:01:17;2.17;;;2.13;;
8622;SDS011;4349;47.552;8.904;2023-12-14T06:03:45;2.50;;;2.40;;
8622;SDS011;4349;47.552;8.904;2023-12-14T06:06:13;2.20;;;2.20;;
8622;SDS011;4349;47.552;8.904;2023-12-14T06:08:42;2.60;;;2.50;;
8622;SDS011;4349;47.552;8.904;2023-12-14T06:11:10;2.60;;;2.50;;
8622;SDS011;4349;47.552;8.904;2023-12-14T06:13:38;2.80;;;2.70;;
8622;SDS011;4349;47.552;8.904;2023-12-14T06:16:15;2.53;;;2.43;;
8622;SDS011;4349;47.552;8.904;2023-12-14T06:19:07;2.73;;;2.63;;
8622;SDS011;4349;47.552;8.904;2023-12-14T06:21:35;2.90;;;2.80;;
8622;SDS011;4349;47.552;8.904;2023-12-14T06:24:05;2.70;;;2.60;;
8622;SDS011;4349;47.552;8.904;2023-12-14T06:26:32;3.07;;;2.87;;
8622;SDS011;4349;47.552;8.904;2023-12-14T06:28:59;3.20;;;3.10;;
8622;SDS011;4349;47.552;8.904;2023-12-14T06:31:27;3.30;;;3.10;;
8622;SDS011;4349;47.552;8.904;2023-12-14T06:33:55;2.80;;;2.70;;
8622;SDS011;4349;47.552;8.904;2023-12-14T06:36:26;3.93;;;2.60;;
8622;SDS011;4349;47.552;8.904;2023-12-14T06:38:56;3.10;;;2.90;;
8622;SDS011;4349;47.552;8.904;2023-12-14T06:41:25;3.03;;;2.83;;
8622;SDS011;4349;47.552;8.904;2023-12-14T06:43:53;3.10;;;2.97;;
8622;SDS011;4349;47.552;8.904;2023-12-14T06:46:21;2.83;;;2.73;;
8622;SDS011;4349;47.552;8.904;2023-12-14T06:48:49;2.60;;;2.50;;
8622;SDS011;4349;47.552;8.904;2023-12-14T06:51:17;3.27;;;2.70;;
8622;SDS011;4349;47.552;8.904;2023-12-14T06:53:44;2.50;;;2.40;;
8622;SDS011;4349;47.552;8.904;2023-12-14T06:56:13;2.83;;;2.73;;
8622;SDS011;4349;47.552;8.904;2023-12-14T06:58:43;3.00;;;2.80;;
8622;SDS011;4349;47.552;8.904;2023-12-14T07:01:11;2.83;;;2.73;;
8622;SDS011;4349;47.552;8.904;2023-12-14T07:03:40;2.77;;;2.60;;
8622;SDS011;4349;47.552;8.904;2023-12-14T07:06:07;2.90;;;2.80;;
8622;SDS011;4349;47.552;8.904;2023-12-14T07:08:38;2.87;;;2.77;;
8622;SDS011;4349;47.552;8.904;2023-12-14T07:11:06;2.97;;;2.87;;
8622;SDS011;4349;47.552;8.904;2023-12-14T07:13:34;3.40;;;3.30;;
8622;SDS011;4349;47.552;8.904;2023-12-14T07:16:05;3.67;;;3.47;;
8622;SDS011;4349;47.552;8.904;2023-12-14T07:18:34;3.30;;;3.20;;
8622;SDS011;4349;47.552;8.904;2023-12-14T07:21:02;3.37;;;3.17;;
8622;SDS011;4349;47.552;8.904;2023-12-14T07:23:30;3.33;;;3.20;;
8622;SDS011;4349;47.552;8.904;2023-12-14T07:25:58;3.53;;;3.40;;
8622;SDS011;4349;47.552;8.904;2023-12-14T07:28:29;4.53;;;4.23;;
8622;SDS011;4349;47.552;8.904;2023-12-14T07:30:57;3.80;;;3.67;;
8622;SDS011;4349;47.552;8.904;2023-12-14T07:33:26;4.80;;;4.50;;
8622;SDS011;4349;47.552;8.904;2023-12-14T07:35:54;3.83;;;3.63;;
8622;SDS011;4349;47.552;8.904;2023-12-14T07:38:21;4.43;;;4.10;;
8622;SDS011;4349;47.552;8.904;2023-12-14T07:40:51;4.23;;;4.03;;
8622;SDS011;4349;47.552;8.904;2023-12-14T07:43:19;4.40;;;4.10;;
8622;SDS011;4349;47.552;8.904;2023-12-14T07:45:46;4.27;;;3.97;;
8622;SDS011;4349;47.552;8.904;2023-12-14T07:48:14;4.37;;;4.13;;
8622;SDS011;4349;47.552;8.904;2023-12-14T07:50:43;4.90;;;4.50;;
8622;SDS011;4349;47.552;8.904;2023-12-14T07:53:12;5.57;;;5.07;;
8622;SDS011;4349;47.552;8.904;2023-12-14T07:55:39;4.90;;;4.50;;
8622;SDS011;4349;47.552;8.904;2023-12-14T07:58:08;5.40;;;5.00;;
8622;SDS011;4349;47.552;8.904;2023-12-14T08:00:35;5.43;;;5.03;;
8622;SDS011;4349;47.552;8.904;2023-12-14T08:03:03;5.47;;;5.03;;
8622;SDS011;4349;47.552;8.904;2023-12-14T08:05:31;4.53;;;4.33;;
8622;SDS011;4349;47.552;8.904;2023-12-14T08:08:00;5.13;;;4.63;;
8622;SDS011;4349;47.552;8.904;2023-12-14T08:10:28;5.23;;;4.93;;
8622;SDS011;4349;47.552;8.904;2023-12-14T08:12:56;5.10;;;4.80;;
8622;SDS011;4349;47.552;8.904;2023-12-14T08:15:27;4.83;;;4.53;;
8622;SDS011;4349;47.552;8.904;2023-12-14T08:17:57;5.60;;;5.10;;
8622;SDS011;4349;47.552;8.904;2023-12-14T08:20:26;5.60;;;5.30;;
8622;SDS011;4349;47.552;8.904;2023-12-14T08:22:54;6.13;;;5.53;;
8622;SDS011;4349;47.552;8.904;2023-12-14T08:25:24;5.63;;;5.13;;
8622;SDS011;4349;47.552;8.904;2023-12-14T08:27:52;5.40;;;5.03;;
8622;SDS011;4349;47.552;8.904;2023-12-14T08:30:20;5.50;;;5.20;;
8622;SDS011;4349;47.552;8.904;2023-12-14T08:32:50;5.30;;;5.00;;
8622;SDS011;4349;47.552;8.904;2023-12-14T08:35:18;5.47;;;5.07;;
8622;SDS011;4349;47.552;8.904;2023-12-14T08:37:45;5.63;;;5.23;;
8622;SDS011;4349;47.552;8.904;2023-12-14T08:40:13;6.30;;;5.80;;
8622;SDS011;4349;47.552;8.904;2023-12-14T08:42:42;5.43;;;5.13;;
8622;SDS011;4349;47.552;8.904;2023-12-14T08:45:10;5.53;;;5.17;;
8622;SDS011;4349;47.552;8.904;2023-12-14T08:47:38;6.10;;;5.70;;
8622;SDS011;4349;47.552;8.904;2023-12-14T08:50:06;6.43;;;5.93;;
8622;SDS011;4349;47.552;8.904;2023-12-14T08:52:35;6.43;;;5.97;;
8622;SDS011;4349;47.552;8.904;2023-12-14T08:55:04;5.43;;;5.13;;
8622;SDS011;4349;47.552;8.904;2023-12-14T08:57:31;5.97;;;5.57;;
8622;SDS011;4349;47.552;8.904;2023-12-14T09:00:00;6.23;;;5.50;;
8622;SDS011;4349;47.552;8.904;2023-12-14T09:02:30;6.60;;;6.13;;
8622;SDS011;4349;47.552;8.904;2023-12-14T09:04:58;6.13;;;5.73;;
8622;SDS011;4349;47.552;8.904;2023-12-14T09:07:26;5.63;;;5.23;;
8622;SDS011;4349;47.552;8.904;2023-12-14T09:09:53;6.47;;;5.97;;
8622;SDS011;4349;47.552;8.904;2023-12-14T09:12:21;6.17;;;5.87;;
8622;SDS011;4349;47.552;8.904;2023-12-14T09:14:49;5.60;;;5.30;;
8622;SDS011;4349;47.552;8.904;2023-12-14T09:17:18;5.70;;;5.40;;
8622;SDS011;4349;47.552;8.904;2023-12-14T09:19:45;5.67;;;5.37;;
8622;SDS011;4349;47.552;8.904;2023-12-14T09:22:13;5.67;;;5.37;;
8622;SDS011;4349;47.552;8.904;2023-12-14T09:24:40;5.47;;;5.07;;
8622;SDS011;4349;47.552;8.904;2023-12-14T09:27:08;5.07;;;4.77;;
8622;SDS011;4349;47.552;8.904;2023-12-14T09:29:36;5.10;;;4.60;;
8622;SDS011;4349;47.552;8.904;2023-12-14T09:32:04;4.93;;;4.63;;
8622;SDS011;4349;47.552;8.904;2023-12-14T09:34:33;4.60;;;4.33;;
8622;SDS011;4349;47.552;8.904;2023-12-14T09:37:01;5.00;;;4.67;;
8622;SDS011;4349;47.552;8.904;2023-12-14T09:39:28;4.33;;;4.13;;
8622;SDS011;4349;47.552;8.904;2023-12-14T09:42:01;4.83;;;4.53;;
8622;SDS011;4349;47.552;8.904;2023-12-14T09:44:29;4.70;;;4.30;;
8622;SDS011;4349;47.552;8.904;2023-12-14T09:46:57;4.20;;;3.90;;
8622;SDS011;4349;47.552;8.904;2023-12-14T09:49:26;4.60;;;4.10;;
8622;SDS011;4349;47.552;8.904;2023-12-14T09:51:56;4.33;;;4.03;;
8622;SDS011;4349;47.552;8.904;2023-12-14T09:54:24;4.20;;;3.90;;
8622;SDS011;4349;47.552;8.904;2023-12-14T09:56:52;3.83;;;3.63;;
8622;SDS011;4349;47.552;8.904;2023-12-14T09:59:20;4.00;;;3.80;;
8622;SDS011;4349;47.552;8.904;2023-12-14T10:01:48;4.30;;;4.00;;
8622;SDS011;4349;47.552;8.904;2023-12-14T10:04:17;4.33;;;4.03;;
8622;SDS011;4349;47.552;8.904;2023-12-14T10:06:45;4.00;;;3.80;;
8622;SDS011;4349;47.552;8.904;2023-12-14T10:09:15;4.10;;;3.90;;
8622;SDS011;4349;47.552;8.904;2023-12-14T10:11:45;4.00;;;3.80;;
8622;SDS011;4349;47.552;8.904;2023-12-14T10:14:17;4.13;;;3.80;;
8622;SDS011;4349;47.552;8.904;2023-12-14T10:16:45;4.40;;;4.10;;
8622;SDS011;4349;47.552;8.904;2023-12-14T10:19:13;4.10;;;3.80;;
8622;SDS011;4349;47.552;8.904;2023-12-14T10:21:40;3.90;;;3.70;;
8622;SDS011;4349;47.552;8.904;2023-12-14T10:24:08;3.90;;;3.60;;
8622;SDS011;4349;47.552;8.904;2023-12-14T10:26:37;3.87;;;3.47;;
8622;SDS011;4349;47.552;8.904;2023-12-14T10:29:05;4.00;;;3.67;;
8622;SDS011;4349;47.552;8.904;2023-12-14T10:31:33;3.53;;;3.33;;
8622;SDS011;4349;47.552;8.904;2023-12-14T10:34:03;3.73;;;3.53;;
8622;SDS011;4349;47.552;8.904;2023-12-14T10:36:31;3.50;;;3.30;;
8622;SDS011;4349;47.552;8.904;2023-12-14T10:39:00;3.63;;;3.40;;
8622;SDS011;4349;47.552;8.904;2023-12-14T10:41:29;3.17;;;2.97;;
8622;SDS011;4349;47.552;8.904;2023-12-14T10:43:59;3.77;;;3.47;;
8622;SDS011;4349;47.552;8.904;2023-12-14T10:46:48;3.73;;;3.53;;
8622;SDS011;4349;47.552;8.904;2023-12-14T10:49:16;3.63;;;3.43;;
8622;SDS011;4349;47.552;8.904;2023-12-14T10:51:44;4.03;;;3.73;;
8622;SDS011;4349;47.552;8.904;2023-12-14T10:54:14;4.07;;;3.77;;
8622;SDS011;4349;47.552;8.904;2023-12-14T10:56:43;4.00;;;3.70;;
8622;SDS011;4349;47.552;8.904;2023-12-14T10:59:12;4.03;;;3.80;;
8622;SDS011;4349;47.552;8.904;2023-12-14T11:01:42;3.80;;;3.60;;
8622;SDS011;4349;47.552;8.904;2023-12-14T11:04:10;3.63;;;3.43;;
8622;SDS011;4349;47.552;8.904;2023-12-14T11:06:41;4.00;;;3.70;;
8622;SDS011;4349;47.552;8.904;2023-12-14T11:09:13;3.57;;;3.33;;
8622;SDS011;4349;47.552;8.904;2023-12-14T11:11:42;4.10;;;3.80;;
8622;SDS011;4349;47.552;8.904;2023-12-14T11:14:12;4.23;;;3.87;;
8622;SDS011;4349;47.552;8.904;2023-12-14T11:16:40;4.03;;;3.73;;
8622;SDS011;4349;47.552;8.904;2023-12-14T11:19:24;3.37;;;3.17;;
8622;SDS011;4349;47.552;8.904;2023-12-14T11:21:58;3.40;;;3.20;;
8622;SDS011;4349;47.552;8.904;2023-12-14T11:24:36;3.10;;;3.00;;
8622;SDS011;4349;47.552;8.904;2023-12-14T11:27:03;2.90;;;2.80;;
8622;SDS011;4349;47.552;8.904;2023-12-14T11:29:32;3.33;;;3.13;;
8622;SDS011;4349;47.552;8.904;2023-12-14T11:32:01;3.57;;;3.30;;
8622;SDS011;4349;47.552;8.904;2023-12-14T11:34:28;3.50;;;3.20;;
8622;SDS011;4349;47.552;8.904;2023-12-14T11:36:56;3.10;;;2.90;;
8622;SDS011;4349;47.552;8.904;2023-12-14T11:39:23;2.87;;;2.77;;
8622;SDS011;4349;47.552;8.904;2023-12-14T11:41:58;3.07;;;2.87;;
8622;SDS011;4349;47.552;8.904;2023-12-14T11:44:27;3.10;;;2.97;;
8622;SDS011;4349;47.552;8.904;2023-12-14T11:46:57;3.60;;;3.40;;
8622;SDS011;4349;47.552;8.904;2023-12-14T11:49:25;3.40;;;3.27;;
8622;SDS011;4349;47.552;8.904;2023-12-14T11:51:54;3.53;;;3.27;;
8622;SDS011;4349;47.552;8.904;2023-12-14T11:54:22;3.20;;;3.00;;
8622;SDS011;4349;47.552;8.904;2023-12-14T11:56:50;3.90;;;3.70;;
8622;SDS011;4349;47.552;8.904;2023-12-14T11:59:18;3.00;;;2.90;;
8622;SDS011;4349;47.552;8.904;2023-12-14T12:01:58;3.10;;;2.90;;
8622;SDS011;4349;47.552;8.904;2023-12-14T12:04:26;3.00;;;2.90;;
8622;SDS011;4349;47.552;8.904;2023-12-14T12:07:00;3.50;;;3.30;;
8622;SDS011;4349;47.552;8.904;2023-12-14T12:09:33;3.53;;;3.33;;
8622;SDS011;4349;47.552;8.904;2023-12-14T12:12:01;7.87;;;3.30;;
8622;SDS011;4349;47.552;8.904;2023-12-14T12:14:29;2.97;;;2.80;;
8622;SDS011;4349;47.552;8.904;2023-12-14T12:16:58;2.90;;;2.80;;
8622;SDS011;4349;47.552;8.904;2023-12-14T12:19:26;3.10;;;2.90;;
8622;SDS011;4349;47.552;8.904;2023-12-14T12:21:54;3.03;;;2.90;;
8622;SDS011;4349;47.552;8.904;2023-12-14T12:24:21;3.40;;;3.10;;
8622;SDS011;4349;47.552;8.904;2023-12-14T12:26:53;3.20;;;3.00;;
8622;SDS011;4349;47.552;8.904;2023-12-14T12:29:20;2.80;;;2.70;;
8622;SDS011;4349;47.552;8.904;2023-12-14T12:31:48;3.20;;;3.10;;
8622;SDS011;4349;47.552;8.904;2023-12-14T12:34:17;2.93;;;2.83;;
8622;SDS011;4349;47.552;8.904;2023-12-14T12:36:45;3.20;;;3.00;;
8622;SDS011;4349;47.552;8.904;2023-12-14T12:39:13;3.00;;;2.90;;
8622;SDS011;4349;47.552;8.904;2023-12-14T12:41:40;3.13;;;3.03;;
8622;SDS011;4349;47.552;8.904;2023-12-14T12:44:08;3.20;;;3.00;;
8622;SDS011;4349;47.552;8.904;2023-12-14T12:46:36;2.90;;;2.70;;
8622;SDS011;4349;47.552;8.904;2023-12-14T12:49:05;3.10;;;2.90;;
8622;SDS011;4349;47.552;8.904;2023-12-14T12:51:34;2.70;;;2.60;;
8622;SDS011;4349;47.552;8.904;2023-12-14T12:54:01;3.30;;;3.00;;
8622;SDS011;4349;47.552;8.904;2023-12-14T12:56:39;3.37;;;3.17;;
8622;SDS011;4349;47.552;8.904;2023-12-14T12:59:06;2.80;;;2.70;;
8622;SDS011;4349;47.552;8.904;2023-12-14T13:01:35;2.63;;;2.53;;
8622;SDS011;4349;47.552;8.904;2023-12-14T13:04:03;3.00;;;2.80;;
8622;SDS011;4349;47.552;8.904;2023-12-14T13:06:31;2.70;;;2.60;;
8622;SDS011;4349;47.552;8.904;2023-12-14T13:09:00;2.80;;;2.70;;
8622;SDS011;4349;47.552;8.904;2023-12-14T13:11:28;3.07;;;2.87;;
8622;SDS011;4349;47.552;8.904;2023-12-14T13:13:56;2.70;;;2.60;;
8622;SDS011;4349;47.552;8.904;2023-12-14T13:16:24;3.43;;;2.90;;
8622;SDS011;4349;47.552;8.904;2023-12-14T13:18:55;2.70;;;2.60;;
8622;SDS011;4349;47.552;8.904;2023-12-14T13:21:23;2.63;;;2.53;;
8622;SDS011;4349;47.552;8.904;2023-12-14T13:23:51;2.90;;;2.80;;
8622;SDS011;4349;47.552;8.904;2023-12-14T13:26:20;2.50;;;2.40;;
8622;SDS011;4349;47.552;8.904;2023-12-14T13:28:48;2.40;;;2.30;;
8622;SDS011;4349;47.552;8.904;2023-12-14T13:31:15;3.10;;;2.90;;
8622;SDS011;4349;47.552;8.904;2023-12-14T13:33:43;2.67;;;2.57;;
8622;SDS011;4349;47.552;8.904;2023-12-14T13:36:10;2.60;;;2.50;;
8622;SDS011;4349;47.552;8.904;2023-12-14T13:38:38;2.83;;;2.73;;
8622;SDS011;4349;47.552;8.904;2023-12-14T13:41:06;2.73;;;2.63;;
8622;SDS011;4349;47.552;8.904;2023-12-14T13:43:35;2.43;;;2.33;;
8622;SDS011;4349;47.552;8.904;2023-12-14T13:46:02;3.30;;;3.10;;
8622;SDS011;4349;47.552;8.904;2023-12-14T13:48:45;2.83;;;2.63;;
8622;SDS011;4349;47.552;8.904;2023-12-14T13:51:13;3.03;;;2.83;;
8622;SDS011;4349;47.552;8.904;2023-12-14T13:53:41;2.57;;;2.47;;
8622;SDS011;4349;47.552;8.904;2023-12-14T13:56:09;2.73;;;2.43;;
8622;SDS011;4349;47.552;8.904;2023-12-14T13:58:38;2.73;;;2.63;;
8622;SDS011;4349;47.552;8.904;2023-12-14T14:01:06;2.30;;;2.20;;
8622;SDS011;4349;47.552;8.904;2023-12-14T14:03:34;2.43;;;2.33;;
8622;SDS011;4349;47.552;8.904;2023-12-14T14:06:04;2.40;;;2.30;;
8622;SDS011;4349;47.552;8.904;2023-12-14T14:08:32;2.97;;;2.77;;
8622;SDS011;4349;47.552;8.904;2023-12-14T14:11:00;2.80;;;2.60;;
8622;SDS011;4349;47.552;8.904;2023-12-14T14:13:29;2.80;;;2.60;;
8622;SDS011;4349;47.552;8.904;2023-12-14T14:15:58;2.90;;;2.80;;
8622;SDS011;4349;47.552;8.904;2023-12-14T14:18:26;2.83;;;2.63;;
8622;SDS011;4349;47.552;8.904;2023-12-14T14:20:53;2.57;;;2.47;;
8622;SDS011;4349;47.552;8.904;2023-12-14T14:23:21;3.10;;;2.87;;
8622;SDS011;4349;47.552;8.904;2023-12-14T14:25:49;2.90;;;2.80;;
8622;SDS011;4349;47.552;8.904;2023-12-14T14:28:20;3.00;;;2.80;;
8622;SDS011;4349;47.552;8.904;2023-12-14T14:30:51;2.90;;;2.70;;
8622;SDS011;4349;47.552;8.904;2023-12-14T14:33:20;3.00;;;2.77;;
8622;SDS011;4349;47.552;8.904;2023-12-14T14:35:48;3.00;;;2.80;;
8622;SDS011;4349;47.552;8.904;2023-12-14T14:38:16;3.07;;;2.90;;
8622;SDS011;4349;47.552;8.904;2023-12-14T14:40:44;2.80;;;2.60;;
8622;SDS011;4349;47.552;8.904;2023-12-14T14:43:11;3.50;;;3.20;;
8622;SDS011;4349;47.552;8.904;2023-12-14T14:45:39;2.90;;;2.70;;
8622;SDS011;4349;47.552;8.904;2023-12-14T14:48:07;3.03;;;2.83;;
8622;SDS011;4349;47.552;8.904;2023-12-14T14:50:37;3.23;;;2.90;;
8622;SDS011;4349;47.552;8.904;2023-12-14T14:53:04;3.10;;;2.80;;
8622;SDS011;4349;47.552;8.904;2023-12-14T14:55:32;2.70;;;2.60;;
8622;SDS011;4349;47.552;8.904;2023-12-14T14:58:01;3.27;;;3.07;;
8622;SDS011;4349;47.552;8.904;2023-12-14T15:00:29;2.87;;;2.67;;
8622;SDS011;4349;47.552;8.904;2023-12-14T15:02:58;3.20;;;2.90;;
8622;SDS011;4349;47.552;8.904;2023-12-14T15:05:27;2.97;;;2.77;;
8622;SDS011;4349;47.552;8.904;2023-12-14T15:07:56;3.27;;;2.97;;
8622;SDS011;4349;47.552;8.904;2023-12-14T15:10:26;3.33;;;3.13;;
8622;SDS011;4349;47.552;8.904;2023-12-14T15:12:53;3.30;;;3.20;;
8622;SDS011;4349;47.552;8.904;2023-12-14T15:15:21;3.40;;;3.20;;
8622;SDS011;4349;47.552;8.904;2023-12-14T15:17:48;3.80;;;3.50;;
8622;SDS011;4349;47.552;8.904;2023-12-14T15:20:16;3.20;;;3.00;;
8622;SDS011;4349;47.552;8.904;2023-12-14T15:22:44;3.20;;;3.00;;